CheckWX is a tool to help pilots better visualize weather data.  It is not intended as a substitute for an official pre-flight weather briefing.

10:53:57 UTC

KAPN TAF
Alpena County Regional Airport
Alpena, Michigan, USA
KAPN 031120Z 0312/0412 32005KT P6SM FEW250 FM031700 35007KT P6SM SCT050 FM032100 03006KT P6SM SCT250 FM032300 36005KT P6SM FEW250 FM040300 VRB03KT P6SM FEW250

Jul-3@
12:00 UTC

Jul-3 @ 12:00 UTC

Jul-3@
17:00 UTC

Jul-3 @ 17:00 UTC

TAF KAPN 031120Z 0312/0412 32005KT P6SM FEW250

Expired

Wind
  • 320° at 5 KTS
Cloud Levels
  • Few at 25,000' AGL

Jul-3@
17:00 UTC

Jul-3 @ 17:00 UTC

Jul-3@
21:00 UTC

Jul-3 @ 21:00 UTC

FM031700 35007KT P6SM SCT050

Expired

Wind
  • 350° at 7 KTS
Cloud Levels
  • Scattered at 5,000' AGL

Jul-3@
21:00 UTC

Jul-3 @ 21:00 UTC

Jul-3@
23:00 UTC

Jul-3 @ 23:00 UTC

FM032100 03006KT P6SM SCT250

Expired

Wind
  • 030° at 6 KTS
Cloud Levels
  • Scattered at 25,000' AGL

Jul-3@
23:00 UTC

Jul-3 @ 23:00 UTC

Jul-4@
03:00 UTC

Jul-4 @ 03:00 UTC

FM032300 36005KT P6SM FEW250

Expired

Wind
  • 360° at 5 KTS
Cloud Levels
  • Few at 25,000' AGL

Jul-4@
03:00 UTC

Jul-4 @ 03:00 UTC

Jul-4@
12:00 UTC

Jul-4 @ 12:00 UTC

FM040300 VRB03KT P6SM FEW250

From

From Standard forecast or significant change

Wind
  • Variable at 3 KTS
Cloud Levels
  • Few at 25,000' AGL